Time;durP1;ratioP1;P1;durP2;ratioP2;P2;SDS_P1;SDS_P2;PMS_P1;PMS_P2;Temp;Humidity;BMP_temperature;BMP_pressure;BME280_temperature;BME280_humidity;BME280_pressure;Samples;Min_cycle;Max_cycle;Signal;HPM_P1;HPM_P2
2022/10/01 00:00:19;;;;;;;3.63;1.60;;;;;;;;;;5062199;28;20071;-70
2022/10/01 00:02:46;;;;;;;3.97;1.70;;;;;;;;;;5067104;28;20518;-69
2022/10/01 00:05:12;;;;;;;4.22;1.48;;;;;;;;;;5065425;28;20033;-70
2022/10/01 00:07:39;;;;;;;2.72;1.30;;;;;;;;;;5042156;28;20049;-69
2022/10/01 00:10:06;;;;;;;3.00;1.38;;;;;;;;;;5064856;28;20587;-69
2022/10/01 00:12:32;;;;;;;5.18;1.30;;;;;;;;;;5062376;28;20062;-69
2022/10/01 00:14:58;;;;;;;4.20;1.40;;;;;;;;;;5063513;28;20111;-70
2022/10/01 00:17:24;;;;;;;5.13;1.50;;;;;;;;;;5064282;28;20065;-70
2022/10/01 00:19:50;;;;;;;3.00;1.17;;;;;;;;;;5058862;28;20045;-70
2022/10/01 00:22:17;;;;;;;4.00;1.20;;;;;;;;;;5063407;28;20055;-69
2022/10/01 00:24:46;;;;;;;4.00;1.35;;;;;;;;;;5041272;28;20098;-70
2022/10/01 00:27:12;;;;;;;3.38;1.38;;;;;;;;;;5063277;28;20645;-69
2022/10/01 00:29:40;;;;;;;9.15;1.70;;;;;;;;;;5068279;28;20462;-70
2022/10/01 00:32:07;;;;;;;3.80;1.15;;;;;;;;;;5061774;28;20051;-69
2022/10/01 00:34:33;;;;;;;2.03;1.10;;;;;;;;;;5062072;28;20050;-70
2022/10/01 00:36:59;;;;;;;3.80;1.63;;;;;;;;;;5063560;28;20066;-70
2022/10/01 00:39:25;;;;;;;3.33;1.00;;;;;;;;;;5058766;28;20083;-70
2022/10/01 00:41:51;;;;;;;1.60;1.05;;;;;;;;;;5064059;28;21117;-70
2022/10/01 00:44:34;;;;;;;2.75;1.58;;;;;;;;;;5059501;28;20049;-70
2022/10/01 00:47:30;;;;;;;3.97;1.42;;;;;;;;;;5064820;28;20041;-70
2022/10/01 00:50:16;;;;;;;1.80;1.20;;;;;;;;;;5050942;28;20059;-70
2022/10/01 00:52:45;;;;;;;2.13;1.10;;;;;;;;;;5062493;28;20080;-70
2022/10/01 00:55:16;;;;;;;4.57;1.92;;;;;;;;;;5072321;28;20044;-70
2022/10/01 00:57:44;;;;;;;1.85;1.15;;;;;;;;;;5071004;28;20044;-70
2022/10/01 01:00:11;;;;;;;2.85;1.67;;;;;;;;;;5062117;28;20102;-70
2022/10/01 01:02:37;;;;;;;3.22;1.42;;;;;;;;;;5042255;28;20426;-70
2022/10/01 01:05:03;;;;;;;6.38;2.40;;;;;;;;;;5064662;28;20049;-70
2022/10/01 01:07:30;;;;;;;3.67;1.15;;;;;;;;;;5065038;28;20051;-70
2022/10/01 01:09:57;;;;;;;4.43;1.88;;;;;;;;;;5065724;28;20049;-70
2022/10/01 01:12:33;;;;;;;3.20;1.58;;;;;;;;;;5061328;28;20040;-70
2022/10/01 01:14:59;;;;;;;1.30;1.08;;;;;;;;;;5061469;28;20159;-69
2022/10/01 01:17:32;;;;;;;5.60;1.55;;;;;;;;;;5058217;28;20040;-70
2022/10/01 01:19:58;;;;;;;1.67;1.30;;;;;;;;;;5062527;28;20056;-70
2022/10/01 01:22:29;;;;;;;1.70;1.17;;;;;;;;;;5061411;28;20037;-70
2022/10/01 01:25:21;;;;;;;3.30;1.33;;;;;;;;;;5066685;28;20045;-70
2022/10/01 01:27:47;;;;;;;2.47;1.38;;;;;;;;;;5042706;28;20194;-70
2022/10/01 01:30:15;;;;;;;2.05;1.45;;;;;;;;;;5070367;28;20044;-70
2022/10/01 01:32:45;;;;;;;1.38;0.95;;;;;;;;;;5068701;28;20573;-70
2022/10/01 01:35:14;;;;;;;1.77;1.17;;;;;;;;;;5070876;28;20036;-70
2022/10/01 01:37:49;;;;;;;1.88;1.10;;;;;;;;;;5073426;28;20048;-70
2022/10/01 01:40:16;;;;;;;1.70;1.42;;;;;;;;;;5065620;28;20059;-70
2022/10/01 01:42:42;;;;;;;4.10;1.10;;;;;;;;;;5062212;28;20040;-69
2022/10/01 01:45:10;;;;;;;1.40;1.30;;;;;;;;;;5064335;28;21199;-70
2022/10/01 01:47:38;;;;;;;1.27;1.17;;;;;;;;;;5063052;28;20055;-70
2022/10/01 01:50:06;;;;;;;2.60;1.00;;;;;;;;;;5061706;28;20087;-70
2022/10/01 01:52:33;;;;;;;1.52;0.80;;;;;;;;;;5070535;28;20067;-70
2022/10/01 01:55:01;;;;;;;1.05;0.90;;;;;;;;;;5066440;28;20037;-70
2022/10/01 01:57:32;;;;;;;1.58;1.30;;;;;;;;;;5066930;28;20048;-70
2022/10/01 01:59:58;;;;;;;0.90;0.73;;;;;;;;;;5064252;28;20037;-69
2022/10/01 02:02:32;;;;;;;1.38;0.88;;;;;;;;;;5067481;28;20056;-70
2022/10/01 02:05:02;;;;;;;2.53;1.15;;;;;;;;;;5068021;28;20068;-70
2022/10/01 02:07:43;;;;;;;1.58;1.10;;;;;;;;;;5067897;28;20048;-69
2022/10/01 02:10:18;;;;;;;1.23;1.00;;;;;;;;;;5065771;28;20041;-70
2022/10/01 02:13:07;;;;;;;1.48;1.05;;;;;;;;;;5061005;28;20306;-69
2022/10/01 02:15:36;;;;;;;1.10;0.90;;;;;;;;;;5064684;28;20124;-70
2022/10/01 02:18:10;;;;;;;1.33;1.10;;;;;;;;;;5066988;28;20102;-70
2022/10/01 02:20:43;;;;;;;2.67;1.10;;;;;;;;;;5080988;28;20055;-70
2022/10/01 02:23:12;;;;;;;1.23;1.05;;;;;;;;;;5066437;28;20055;-70
2022/10/01 02:25:46;;;;;;;0.95;0.70;;;;;;;;;;5072500;28;20526;-70
2022/10/01 02:28:17;;;;;;;1.08;0.60;;;;;;;;;;5074216;28;20128;-70
2022/10/01 02:30:44;;;;;;;0.68;0.55;;;;;;;;;;5072250;28;20136;-70
2022/10/01 02:33:12;;;;;;;2.08;0.75;;;;;;;;;;5073949;28;20079;-70
2022/10/01 02:35:41;;;;;;;1.08;0.80;;;;;;;;;;5071298;28;20045;-71
2022/10/01 02:38:09;;;;;;;0.90;0.60;;;;;;;;;;5066122;28;20051;-70
2022/10/01 02:40:38;;;;;;;3.42;1.20;;;;;;;;;;5066500;28;20505;-69
2022/10/01 02:43:10;;;;;;;1.02;0.68;;;;;;;;;;5070382;28;20032;-70
2022/10/01 02:45:38;;;;;;;0.70;0.70;;;;;;;;;;5089700;28;20056;-70
2022/10/01 02:48:06;;;;;;;1.58;0.60;;;;;;;;;;5074289;28;20041;-70
2022/10/01 02:50:44;;;;;;;1.00;0.55;;;;;;;;;;5074405;28;20672;-70
2022/10/01 02:53:18;;;;;;;1.40;0.70;;;;;;;;;;5071110;28;20114;-70
2022/10/01 02:55:44;;;;;;;0.60;0.60;;;;;;;;;;5071899;28;20127;-69
2022/10/01 02:58:11;;;;;;;2.47;0.60;;;;;;;;;;5066123;28;20037;-70
2022/10/01 03:00:37;;;;;;;0.85;0.70;;;;;;;;;;5074281;28;20100;-69
2022/10/01 03:03:03;;;;;;;1.13;0.57;;;;;;;;;;5068712;28;20036;-70
2022/10/01 03:05:29;;;;;;;0.65;0.40;;;;;;;;;;5073166;28;20080;-70
2022/10/01 03:07:55;;;;;;;0.63;0.55;;;;;;;;;;5089177;28;20128;-71
2022/10/01 03:10:21;;;;;;;0.40;0.40;;;;;;;;;;5068792;28;20055;-71
2022/10/01 03:12:47;;;;;;;0.50;0.50;;;;;;;;;;5069223;28;20898;-70
2022/10/01 03:15:15;;;;;;;0.65;0.60;;;;;;;;;;5066316;28;20035;-70
2022/10/01 03:17:41;;;;;;;0.82;0.82;;;;;;;;;;5065275;28;20040;-70
2022/10/01 03:20:08;;;;;;;0.70;0.40;;;;;;;;;;5070931;28;20045;-70
2022/10/01 03:22:34;;;;;;;0.50;0.50;;;;;;;;;;5059968;28;20044;-70
2022/10/01 03:25:00;;;;;;;0.45;0.40;;;;;;;;;;5064493;28;20028;-70
2022/10/01 03:27:26;;;;;;;0.47;0.47;;;;;;;;;;5062298;28;20044;-70
2022/10/01 03:29:52;;;;;;;0.40;0.40;;;;;;;;;;5041916;28;20040;-71
2022/10/01 03:32:19;;;;;;;0.40;0.40;;;;;;;;;;5063609;28;20087;-70
2022/10/01 03:34:46;;;;;;;0.70;0.43;;;;;;;;;;5061493;28;20160;-70
2022/10/01 03:37:12;;;;;;;1.45;0.30;;;;;;;;;;5039617;28;20044;-70
2022/10/01 03:39:38;;;;;;;1.88;0.38;;;;;;;;;;5062986;28;20041;-70
2022/10/01 03:42:05;;;;;;;0.30;0.30;;;;;;;;;;5063615;28;20047;-70
2022/10/01 03:44:32;;;;;;;0.52;0.25;;;;;;;;;;5062632;28;20037;-70
2022/10/01 03:46:58;;;;;;;0.60;0.50;;;;;;;;;;5062669;28;20040;-69
2022/10/01 03:49:24;;;;;;;1.77;0.52;;;;;;;;;;5063851;28;20639;-69
2022/10/01 03:51:51;;;;;;;0.47;0.40;;;;;;;;;;5062102;28;20040;-70
2022/10/01 03:54:17;;;;;;;0.30;0.30;;;;;;;;;;5045284;28;20381;-70
2022/10/01 03:56:43;;;;;;;0.25;0.25;;;;;;;;;;5059507;28;20099;-70
2022/10/01 03:59:10;;;;;;;0.38;0.38;;;;;;;;;;5080057;28;20102;-70
2022/10/01 04:01:36;;;;;;;0.50;0.50;;;;;;;;;;5058186;28;20040;-70
2022/10/01 04:04:02;;;;;;;0.38;0.38;;;;;;;;;;5062151;28;20036;-70
2022/10/01 04:06:29;;;;;;;0.35;0.35;;;;;;;;;;5063849;28;20040;-70
2022/10/01 04:08:55;;;;;;;0.80;0.50;;;;;;;;;;5059421;28;20049;-70
2022/10/01 04:11:21;;;;;;;0.63;0.35;;;;;;;;;;5073133;28;20036;-70
2022/10/01 04:13:47;;;;;;;0.50;0.50;;;;;;;;;;5068478;28;20394;-70
2022/10/01 04:16:14;;;;;;;0.30;0.30;;;;;;;;;;5061795;28;20961;-70
2022/10/01 04:18:40;;;;;;;0.80;0.50;;;;;;;;;;5062592;28;20600;-71
2022/10/01 04:21:07;;;;;;;1.00;0.43;;;;;;;;;;5059683;28;20086;-70
2022/10/01 04:23:33;;;;;;;0.38;0.38;;;;;;;;;;5063797;28;20059;-70
2022/10/01 04:26:02;;;;;;;1.67;0.28;;;;;;;;;;5067665;28;20088;-70
2022/10/01 04:28:29;;;;;;;1.52;0.50;;;;;;;;;;5043581;28;20057;-70
2022/10/01 04:33:41;;;;;;;0.40;0.30;;;;;;;;;;5071171;28;20523;-70
2022/10/01 04:36:07;;;;;;;0.35;0.35;;;;;;;;;;5068153;28;20608;-70
2022/10/01 04:38:33;;;;;;;0.65;0.30;;;;;;;;;;5071675;28;20057;-71
2022/10/01 04:40:59;;;;;;;0.63;0.63;;;;;;;;;;5066914;28;20037;-71
2022/10/01 04:43:25;;;;;;;0.35;0.35;;;;;;;;;;5066867;28;20049;-71
2022/10/01 04:45:52;;;;;;;0.90;0.60;;;;;;;;;;5062657;28;20644;-70
2022/10/01 04:48:18;;;;;;;0.32;0.30;;;;;;;;;;5051989;28;20163;-71
2022/10/01 04:50:44;;;;;;;0.20;0.20;;;;;;;;;;5069583;28;20090;-70
2022/10/01 04:53:10;;;;;;;1.02;0.47;;;;;;;;;;5072733;28;20053;-71
2022/10/01 04:55:36;;;;;;;0.30;0.28;;;;;;;;;;5071501;28;20064;-70
2022/10/01 04:58:02;;;;;;;0.30;0.30;;;;;;;;;;5070862;28;20045;-70
2022/10/01 05:00:28;;;;;;;0.43;0.35;;;;;;;;;;5063285;28;20041;-70
2022/10/01 05:02:55;;;;;;;0.73;0.73;;;;;;;;;;5081738;28;20037;-70
2022/10/01 05:05:22;;;;;;;0.38;0.38;;;;;;;;;;5064081;28;20060;-70
2022/10/01 05:07:48;;;;;;;0.43;0.32;;;;;;;;;;5065461;28;20078;-70
2022/10/01 05:10:19;;;;;;;1.00;0.47;;;;;;;;;;5062572;28;20040;-70
2022/10/01 05:12:45;;;;;;;0.43;0.30;;;;;;;;;;5063962;28;20561;-71
2022/10/01 05:15:12;;;;;;;0.60;0.55;;;;;;;;;;5062683;28;20132;-71
2022/10/01 05:17:38;;;;;;;0.40;0.40;;;;;;;;;;5065510;28;20053;-70
2022/10/01 05:20:05;;;;;;;0.98;0.98;;;;;;;;;;5074177;28;20043;-70
2022/10/01 05:22:31;;;;;;;0.68;0.47;;;;;;;;;;5070276;28;21178;-70
2022/10/01 05:25:01;;;;;;;1.20;0.57;;;;;;;;;;5065717;28;20150;-70
2022/10/01 05:27:27;;;;;;;0.82;0.60;;;;;;;;;;5059701;28;20045;-70
2022/10/01 05:29:55;;;;;;;1.02;0.70;;;;;;;;;;5068017;28;20040;-70
2022/10/01 05:32:21;;;;;;;0.88;0.47;;;;;;;;;;5064828;28;20047;-70
2022/10/01 05:34:47;;;;;;;1.17;0.65;;;;;;;;;;5064955;28;20068;-70
2022/10/01 05:37:13;;;;;;;1.30;0.63;;;;;;;;;;5067175;28;20494;-70
2022/10/01 05:39:40;;;;;;;1.67;0.70;;;;;;;;;;5062054;28;20206;-70
2022/10/01 05:42:06;;;;;;;2.70;0.70;;;;;;;;;;5072877;28;20051;-70
2022/10/01 05:44:36;;;;;;;1.52;0.73;;;;;;;;;;5057217;28;20033;-70
2022/10/01 05:47:03;;;;;;;0.70;0.50;;;;;;;;;;5067029;28;20052;-70
2022/10/01 05:49:29;;;;;;;0.68;0.57;;;;;;;;;;5074888;28;20497;-70
2022/10/01 05:51:55;;;;;;;2.25;1.15;;;;;;;;;;5074175;28;20042;-70
2022/10/01 05:54:22;;;;;;;0.50;0.50;;;;;;;;;;5068429;28;20043;-70
2022/10/01 05:56:49;;;;;;;0.73;0.60;;;;;;;;;;5063458;28;20138;-70
2022/10/01 05:59:15;;;;;;;2.38;0.68;;;;;;;;;;5064831;28;20776;-70
2022/10/01 06:01:42;;;;;;;0.90;0.50;;;;;;;;;;5047527;28;20611;-70
2022/10/01 06:04:09;;;;;;;0.50;0.50;;;;;;;;;;5070927;28;20983;-70
2022/10/01 06:06:35;;;;;;;2.33;1.02;;;;;;;;;;5071770;28;20672;-70
2022/10/01 06:09:01;;;;;;;3.58;1.10;;;;;;;;;;5073798;28;20120;-71
2022/10/01 06:11:27;;;;;;;0.38;0.38;;;;;;;;;;5074591;28;20043;-70
2022/10/01 06:13:53;;;;;;;2.42;1.58;;;;;;;;;;5072526;28;20095;-70
2022/10/01 06:16:20;;;;;;;2.08;0.90;;;;;;;;;;5069014;28;20537;-70
2022/10/01 06:18:47;;;;;;;1.17;0.88;;;;;;;;;;5065780;28;20048;-70
2022/10/01 06:21:13;;;;;;;5.45;1.70;;;;;;;;;;5064176;28;20034;-70
2022/10/01 06:23:39;;;;;;;1.75;0.73;;;;;;;;;;5063791;28;20102;-70
2022/10/01 06:26:05;;;;;;;1.02;0.75;;;;;;;;;;5062071;28;20045;-70
2022/10/01 06:28:32;;;;;;;1.45;0.80;;;;;;;;;;5063335;28;20100;-71
2022/10/01 06:31:01;;;;;;;2.83;1.13;;;;;;;;;;5067702;28;20041;-70
2022/10/01 06:33:27;;;;;;;4.80;0.85;;;;;;;;;;5077823;28;20040;-70
2022/10/01 06:35:53;;;;;;;2.00;0.80;;;;;;;;;;5074685;28;20118;-70
2022/10/01 06:38:20;;;;;;;3.03;1.25;;;;;;;;;;5071825;28;20037;-71
2022/10/01 06:40:59;;;;;;;1.98;0.98;;;;;;;;;;5086027;28;20041;-70
2022/10/01 06:43:27;;;;;;;4.72;1.40;;;;;;;;;;5074153;28;20052;-71
2022/10/01 06:45:53;;;;;;;5.97;1.13;;;;;;;;;;5075771;28;20110;-70
2022/10/01 06:48:20;;;;;;;2.42;1.15;;;;;;;;;;5074529;28;20574;-70
2022/10/01 06:50:47;;;;;;;6.03;1.80;;;;;;;;;;5073858;28;20037;-70
2022/10/01 06:53:14;;;;;;;6.45;2.58;;;;;;;;;;5072612;28;20075;-75
2022/10/01 06:55:41;;;;;;;6.45;1.70;;;;;;;;;;5070164;28;20041;-70
2022/10/01 06:58:17;;;;;;;6.05;1.95;;;;;;;;;;5070717;28;20050;-70
2022/10/01 07:00:43;;;;;;;4.45;1.35;;;;;;;;;;5068973;28;20036;-70
2022/10/01 07:03:14;;;;;;;3.03;1.15;;;;;;;;;;5070195;28;20598;-70
2022/10/01 07:05:40;;;;;;;6.55;1.73;;;;;;;;;;5069376;28;20072;-70
2022/10/01 07:08:07;;;;;;;4.43;1.52;;;;;;;;;;5058182;28;20148;-69
2022/10/01 07:10:34;;;;;;;4.47;1.27;;;;;;;;;;5063751;28;20044;-71
2022/10/01 07:13:12;;;;;;;5.57;1.50;;;;;;;;;;5062464;28;20045;-75
2022/10/01 07:15:38;;;;;;;7.28;1.63;;;;;;;;;;5042810;28;20072;-71
2022/10/01 07:18:05;;;;;;;4.65;2.25;;;;;;;;;;5063755;28;20040;-71
2022/10/01 07:20:34;;;;;;;3.53;1.35;;;;;;;;;;5056208;28;20123;-71
2022/10/01 07:23:01;;;;;;;2.72;1.38;;;;;;;;;;5064766;28;20138;-71
2022/10/01 07:25:27;;;;;;;5.72;1.98;;;;;;;;;;5070882;28;20564;-71
2022/10/01 07:27:55;;;;;;;5.35;1.90;;;;;;;;;;5074065;28;20485;-71
2022/10/01 07:30:22;;;;;;;5.70;1.73;;;;;;;;;;5073405;28;20036;-71
2022/10/01 07:32:48;;;;;;;6.85;1.92;;;;;;;;;;5076876;28;20045;-72
2022/10/01 07:35:15;;;;;;;5.90;2.40;;;;;;;;;;5070185;28;20044;-70
2022/10/01 07:37:41;;;;;;;7.07;2.40;;;;;;;;;;5067134;28;20098;-71
2022/10/01 07:40:07;;;;;;;7.55;2.25;;;;;;;;;;5059335;28;20032;-71
2022/10/01 07:42:34;;;;;;;11.02;2.30;;;;;;;;;;5059766;28;20064;-76
2022/10/01 07:45:03;;;;;;;9.95;1.90;;;;;;;;;;5065472;28;20593;-71
2022/10/01 07:47:29;;;;;;;9.00;1.88;;;;;;;;;;5065355;28;20815;-70
2022/10/01 07:49:55;;;;;;;7.45;2.75;;;;;;;;;;5067107;28;20041;-71
2022/10/01 07:52:21;;;;;;;6.45;1.80;;;;;;;;;;5071387;28;20661;-71
2022/10/01 07:54:47;;;;;;;10.18;3.70;;;;;;;;;;5072943;28;20041;-71
2022/10/01 07:57:14;;;;;;;9.00;2.55;;;;;;;;;;5064509;28;20918;-71
2022/10/01 07:59:40;;;;;;;7.25;2.35;;;;;;;;;;5062758;28;20047;-71
2022/10/01 08:02:17;;;;;;;6.63;2.15;;;;;;;;;;5063032;28;20132;-71
2022/10/01 08:07:30;;;;;;;6.93;2.00;;;;;;;;;;5064017;28;20156;-71
2022/10/01 08:09:56;;;;;;;7.65;2.75;;;;;;;;;;5061285;28;20062;-70
2022/10/01 08:12:23;;;;;;;11.07;3.50;;;;;;;;;;5066359;28;20592;-71
2022/10/01 08:14:51;;;;;;;7.35;2.88;;;;;;;;;;5072346;28;20057;-71
2022/10/01 08:17:23;;;;;;;13.25;3.13;;;;;;;;;;5072805;28;20091;-71
2022/10/01 08:22:46;;;;;;;13.57;3.72;;;;;;;;;;5067304;28;20572;-71
2022/10/01 08:25:13;;;;;;;10.75;2.30;;;;;;;;;;5067349;28;20106;-73
2022/10/01 08:27:39;;;;;;;9.15;2.90;;;;;;;;;;5069612;28;20051;-70
2022/10/01 08:30:05;;;;;;;11.98;3.80;;;;;;;;;;5063900;28;20037;-74
2022/10/01 08:32:32;;;;;;;8.45;2.28;;;;;;;;;;5067092;28;20043;-71
2022/10/01 08:34:58;;;;;;;5.60;1.92;;;;;;;;;;5068609;28;20064;-73
2022/10/01 08:37:31;;;;;;;8.18;1.92;;;;;;;;;;5065975;28;20049;-76
2022/10/01 08:39:57;;;;;;;10.82;3.55;;;;;;;;;;5065402;28;20045;-68
2022/10/01 08:42:42;;;;;;;10.52;2.58;;;;;;;;;;5066058;28;21787;-68
2022/10/01 08:45:13;;;;;;;11.70;2.15;;;;;;;;;;5071379;28;20219;-69
2022/10/01 08:47:48;;;;;;;10.73;3.75;;;;;;;;;;5071183;28;20134;-68
2022/10/01 08:50:22;;;;;;;6.70;2.35;;;;;;;;;;5066017;28;20040;-69
2022/10/01 08:52:53;;;;;;;10.52;3.30;;;;;;;;;;5072708;28;20036;-68
2022/10/01 08:55:24;;;;;;;10.52;3.88;;;;;;;;;;5069866;28;20833;-67
2022/10/01 08:57:55;;;;;;;10.07;4.13;;;;;;;;;;5051338;28;20518;-68
2022/10/01 09:00:22;;;;;;;6.03;2.22;;;;;;;;;;5067549;28;20963;-68
2022/10/01 09:02:49;;;;;;;10.57;3.20;;;;;;;;;;5067626;28;20041;-68
2022/10/01 09:05:23;;;;;;;7.45;2.13;;;;;;;;;;5067066;28;20049;-68
2022/10/01 09:07:49;;;;;;;10.93;3.08;;;;;;;;;;5069492;28;20215;-68
2022/10/01 09:10:34;;;;;;;12.70;2.97;;;;;;;;;;5062956;28;20037;-68
2022/10/01 09:13:20;;;;;;;11.27;2.97;;;;;;;;;;5067662;28;20036;-69
2022/10/01 09:15:49;;;;;;;8.60;2.80;;;;;;;;;;5085542;28;20045;-68
2022/10/01 09:18:31;;;;;;;8.15;3.42;;;;;;;;;;5066858;28;20055;-68
2022/10/01 09:20:57;;;;;;;10.88;3.63;;;;;;;;;;5070713;28;20192;-69
2022/10/01 09:23:31;;;;;;;7.50;2.88;;;;;;;;;;5061495;28;20055;-68
2022/10/01 09:26:03;;;;;;;13.60;4.15;;;;;;;;;;5053715;28;20105;-71
2022/10/01 09:28:34;;;;;;;8.18;2.75;;;;;;;;;;5034845;28;20767;-69
2022/10/01 09:31:02;;;;;;;16.35;3.70;;;;;;;;;;5067639;28;20063;-69
2022/10/01 09:33:33;;;;;;;12.27;2.67;;;;;;;;;;5061318;28;21599;-68
2022/10/01 09:36:07;;;;;;;10.45;2.38;;;;;;;;;;5060853;28;20561;-69
2022/10/01 09:38:39;;;;;;;10.13;2.83;;;;;;;;;;5067398;28;20052;-69
2022/10/01 09:41:07;;;;;;;9.27;2.50;;;;;;;;;;5065897;28;20037;-69
2022/10/01 09:43:33;;;;;;;7.43;3.25;;;;;;;;;;5070738;28;20055;-68
2022/10/01 09:45:59;;;;;;;9.10;2.80;;;;;;;;;;5071974;28;20028;-69
2022/10/01 09:48:31;;;;;;;15.40;3.20;;;;;;;;;;5072371;28;20043;-70
2022/10/01 09:50:57;;;;;;;;;;;;;;;;;;5075175;28;20040;-69
2022/10/01 09:53:34;;;;;;;8.40;2.47;;;;;;;;;;5071154;28;19920;-69
2022/10/01 09:56:04;;;;;;;13.48;4.93;;;;;;;;;;5056467;28;20144;-68
2022/10/01 09:58:32;;;;;;;7.55;3.08;;;;;;;;;;5070085;28;20121;-69
2022/10/01 10:01:00;;;;;;;14.43;3.65;;;;;;;;;;5070799;28;20044;-68
2022/10/01 10:03:29;;;;;;;8.85;3.70;;;;;;;;;;5069817;28;20037;-68
2022/10/01 10:05:56;;;;;;;9.18;3.00;;;;;;;;;;5072795;28;20046;-68
2022/10/01 10:08:25;;;;;;;16.70;4.28;;;;;;;;;;5068190;28;20163;-69
2022/10/01 10:11:09;;;;;;;11.70;3.42;;;;;;;;;;5067361;28;20044;-68
2022/10/01 10:13:40;;;;;;;11.65;3.53;;;;;;;;;;5069363;28;20051;-68
2022/10/01 10:16:15;;;;;;;11.02;2.47;;;;;;;;;;5074164;28;20762;-68
2022/10/01 10:18:41;;;;;;;10.98;3.00;;;;;;;;;;5076140;28;20550;-68
2022/10/01 10:21:15;;;;;;;6.95;2.42;;;;;;;;;;5077411;28;20542;-68
2022/10/01 10:24:00;;;;;;;15.45;4.97;;;;;;;;;;5074855;28;20075;-68
2022/10/01 10:26:31;;;;;;;12.82;3.13;;;;;;;;;;5074684;28;20562;-68
2022/10/01 10:29:00;;;;;;;13.52;3.47;;;;;;;;;;5074850;28;20044;-69
2022/10/01 10:31:27;;;;;;;14.07;3.60;;;;;;;;;;5075127;28;20047;-68
2022/10/01 10:33:58;;;;;;;9.63;2.85;;;;;;;;;;5068657;28;20547;-69
2022/10/01 10:36:32;;;;;;;10.87;2.73;;;;;;;;;;5057834;28;20049;-69
2022/10/01 10:38:58;;;;;;;14.85;2.85;;;;;;;;;;5067915;28;20037;-68
2022/10/01 10:41:25;;;;;;;10.57;2.72;;;;;;;;;;5075543;28;20057;-69
2022/10/01 10:43:54;;;;;;;7.72;2.22;;;;;;;;;;5077084;28;20466;-68
2022/10/01 10:46:28;;;;;;;15.35;3.60;;;;;;;;;;5092823;28;20873;-69
2022/10/01 10:49:06;;;;;;;15.82;3.33;;;;;;;;;;5074612;28;20036;-68
2022/10/01 10:51:42;;;;;;;17.02;3.97;;;;;;;;;;5071980;28;20045;-69
2022/10/01 10:54:31;;;;;;;17.95;2.72;;;;;;;;;;5075429;28;20045;-69
2022/10/01 10:57:01;;;;;;;10.45;3.03;;;;;;;;;;5065857;28;20423;-69
2022/10/01 10:59:27;;;;;;;15.40;4.60;;;;;;;;;;5071880;28;20110;-68
2022/10/01 11:01:53;;;;;;;9.63;2.85;;;;;;;;;;5075782;28;20041;-69
2022/10/01 11:04:26;;;;;;;11.07;2.90;;;;;;;;;;5072999;28;20029;-68
2022/10/01 11:06:57;;;;;;;8.43;3.20;;;;;;;;;;5073088;28;20080;-68
2022/10/01 11:09:26;;;;;;;14.90;3.03;;;;;;;;;;5073871;28;20040;-68
2022/10/01 11:11:52;;;;;;;7.30;2.97;;;;;;;;;;5073955;28;20248;-69
2022/10/01 11:14:47;;;;;;;10.07;3.20;;;;;;;;;;5074900;28;20128;-69
2022/10/01 11:17:22;;;;;;;6.38;2.45;;;;;;;;;;5069196;28;20056;-76
2022/10/01 11:20:09;;;;;;;6.75;2.35;;;;;;;;;;5074275;28;20119;-74
2022/10/01 11:22:54;;;;;;;6.82;2.53;;;;;;;;;;5064395;28;20538;-73
2022/10/01 11:25:44;;;;;;;8.07;2.33;;;;;;;;;;5070075;28;20132;-78
2022/10/01 11:28:45;;;;;;;12.35;3.08;;;;;;;;;;5072561;28;20064;-81
2022/10/01 11:31:18;;;;;;;8.38;2.28;;;;;;;;;;5073137;28;20041;-69
2022/10/01 11:34:02;;;;;;;19.55;2.70;;;;;;;;;;5069993;28;20813;-70
2022/10/01 11:36:40;;;;;;;7.63;1.90;;;;;;;;;;5071547;28;20388;-79
2022/10/01 11:39:18;;;;;;;11.10;3.13;;;;;;;;;;5069819;28;20518;-69
2022/10/01 11:42:00;;;;;;;10.88;2.95;;;;;;;;;;5069438;28;20136;-79
2022/10/01 11:44:31;;;;;;;15.52;2.95;;;;;;;;;;5071718;28;20115;-68
2022/10/01 11:47:00;;;;;;;15.07;3.90;;;;;;;;;;5067537;28;20050;-68
2022/10/01 11:49:37;;;;;;;8.98;2.92;;;;;;;;;;5061543;28;20052;-68
2022/10/01 11:52:09;;;;;;;16.50;5.80;;;;;;;;;;5068132;28;20046;-68
2022/10/01 11:54:38;;;;;;;11.20;4.72;;;;;;;;;;5065315;28;20105;-69
2022/10/01 11:59:49;;;;;;;10.30;3.55;;;;;;;;;;5063375;28;20048;-69
2022/10/01 12:02:23;;;;;;;5.38;2.75;;;;;;;;;;5065782;28;20047;-70
2022/10/01 12:04:49;;;;;;;7.68;3.15;;;;;;;;;;5057112;28;20123;-68
2022/10/01 12:07:37;;;;;;;9.18;3.08;;;;;;;;;;5062484;28;20118;-67
2022/10/01 12:10:16;;;;;;;5.55;1.65;;;;;;;;;;5063560;28;20059;-68
2022/10/01 12:12:45;;;;;;;8.15;3.13;;;;;;;;;;5059597;28;20051;-67
2022/10/01 12:15:23;;;;;;;6.82;2.97;;;;;;;;;;5062374;28;20053;-67
2022/10/01 12:17:53;;;;;;;10.40;2.40;;;;;;;;;;5059753;28;20041;-67
2022/10/01 12:20:22;;;;;;;5.47;2.55;;;;;;;;;;5065611;28;20041;-68
2022/10/01 12:22:49;;;;;;;12.70;2.60;;;;;;;;;;5067042;28;20160;-67
2022/10/01 12:25:15;;;;;;;9.40;2.22;;;;;;;;;;5069518;28;20197;-68
2022/10/01 12:27:55;;;;;;;5.85;2.05;;;;;;;;;;5076264;28;20040;-66
2022/10/01 12:30:22;;;;;;;6.75;2.97;;;;;;;;;;5071223;28;20064;-66
2022/10/01 12:32:51;;;;;;;11.27;3.33;;;;;;;;;;5072326;28;20151;-67
2022/10/01 12:35:36;;;;;;;9.38;3.20;;;;;;;;;;5074952;28;20270;-67
2022/10/01 12:38:05;;;;;;;5.97;1.70;;;;;;;;;;5071889;28;20052;-67
2022/10/01 12:40:39;;;;;;;4.90;1.70;;;;;;;;;;5069784;28;20055;-69
2022/10/01 12:43:24;;;;;;;8.13;1.90;;;;;;;;;;5068768;28;21256;-67
2022/10/01 12:45:54;;;;;;;6.90;2.45;;;;;;;;;;5068579;28;20045;-67
2022/10/01 12:48:24;;;;;;;7.00;2.03;;;;;;;;;;5072466;28;20041;-67
2022/10/01 12:51:02;;;;;;;8.60;2.50;;;;;;;;;;5071742;28;20573;-66
2022/10/01 12:53:34;;;;;;;7.35;2.22;;;;;;;;;;5052204;28;20127;-67
2022/10/01 12:56:10;;;;;;;8.38;2.42;;;;;;;;;;5070718;28;20035;-67
2022/10/01 12:59:05;;;;;;;6.93;2.53;;;;;;;;;;5071773;28;20051;-66
2022/10/01 13:01:43;;;;;;;14.25;3.22;;;;;;;;;;5071554;28;20126;-66
2022/10/01 13:04:09;;;;;;;9.88;3.63;;;;;;;;;;5069034;28;20188;-67
2022/10/01 13:06:54;;;;;;;14.20;2.72;;;;;;;;;;5067588;28;20059;-68
2022/10/01 13:09:28;;;;;;;10.93;2.78;;;;;;;;;;5065438;28;20040;-67
2022/10/01 13:12:02;;;;;;;6.57;2.65;;;;;;;;;;5067884;28;20045;-67
2022/10/01 13:14:28;;;;;;;4.68;1.83;;;;;;;;;;5069471;28;20037;-67
2022/10/01 13:16:58;;;;;;;11.77;2.38;;;;;;;;;;5069011;28;20040;-67
2022/10/01 13:19:38;;;;;;;5.38;2.35;;;;;;;;;;5065896;28;20040;-68
2022/10/01 13:22:31;;;;;;;9.10;2.42;;;;;;;;;;5071830;28;20557;-68
2022/10/01 13:25:16;;;;;;;10.55;3.03;;;;;;;;;;5070848;28;20143;-68
2022/10/01 13:27:45;;;;;;;16.98;2.97;;;;;;;;;;5065509;28;20095;-73
2022/10/01 13:30:21;;;;;;;8.32;2.28;;;;;;;;;;5063529;28;20550;-73
2022/10/01 13:32:52;;;;;;;6.85;1.73;;;;;;;;;;5055058;28;20049;-70
2022/10/01 13:35:24;;;;;;;6.90;1.83;;;;;;;;;;5064684;28;20045;-70
2022/10/01 13:37:50;;;;;;;10.20;2.70;;;;;;;;;;5070107;28;20052;-70
2022/10/01 13:40:27;;;;;;;9.15;2.63;;;;;;;;;;5071375;28;20044;-69
2022/10/01 13:43:17;;;;;;;5.28;1.95;;;;;;;;;;5061902;28;20041;-69
2022/10/01 13:45:45;;;;;;;8.02;2.33;;;;;;;;;;5045140;28;20049;-70
2022/10/01 13:48:11;;;;;;;12.52;3.63;;;;;;;;;;5070674;28;20078;-69
2022/10/01 13:50:54;;;;;;;6.78;3.08;;;;;;;;;;5071897;28;20048;-69
2022/10/01 13:53:21;;;;;;;9.65;2.30;;;;;;;;;;5070160;28;20048;-69
2022/10/01 13:55:47;;;;;;;9.23;2.65;;;;;;;;;;5070795;28;20304;-69
2022/10/01 13:58:23;;;;;;;5.13;2.40;;;;;;;;;;5070506;28;20037;-69
2022/10/01 14:00:51;;;;;;;13.73;3.00;;;;;;;;;;5071802;28;20554;-69
2022/10/01 14:03:33;;;;;;;10.18;2.13;;;;;;;;;;5068741;28;20057;-70
2022/10/01 14:06:00;;;;;;;8.35;2.42;;;;;;;;;;5066973;28;20099;-70
2022/10/01 14:08:45;;;;;;;6.85;2.20;;;;;;;;;;5069619;28;20036;-70
2022/10/01 14:16:56;;;;;;;6.55;2.95;;;;;;;;;;5070140;28;20491;-70
2022/10/01 14:19:24;;;;;;;5.90;1.90;;;;;;;;;;5090167;28;20037;-69
2022/10/01 14:22:09;;;;;;;6.03;1.90;;;;;;;;;;5072544;28;20053;-69
2022/10/01 14:24:54;;;;;;;9.05;2.85;;;;;;;;;;5047518;28;20103;-69
2022/10/01 14:27:20;;;;;;;6.25;1.98;;;;;;;;;;5072677;28;20037;-69
2022/10/01 14:30:00;;;;;;;6.20;3.65;;;;;;;;;;5073614;28;20043;-69
2022/10/01 14:32:49;;;;;;;11.82;2.20;;;;;;;;;;5073408;28;20044;-69
2022/10/01 14:35:31;;;;;;;8.15;2.08;;;;;;;;;;5070614;28;20041;-69
2022/10/01 14:37:59;;;;;;;11.40;3.13;;;;;;;;;;5071083;28;20044;-70
2022/10/01 14:40:26;;;;;;;11.50;3.22;;;;;;;;;;5068595;28;20037;-69
2022/10/01 14:43:30;;;;;;;7.55;1.92;;;;;;;;;;5064485;28;20460;-69
2022/10/01 14:45:59;;;;;;;13.70;2.10;;;;;;;;;;4953136;28;20050;-70
2022/10/01 14:48:26;;;;;;;9.57;3.17;;;;;;;;;;4957864;28;20042;-70
2022/10/01 14:50:54;;;;;;;14.10;3.53;;;;;;;;;;5016898;28;20056;-72
2022/10/01 14:53:22;;;;;;;6.00;2.13;;;;;;;;;;5075916;28;20060;-71
2022/10/01 14:55:49;;;;;;;7.50;2.22;;;;;;;;;;5072468;28;20578;-69
2022/10/01 14:58:39;;;;;;;9.45;3.10;;;;;;;;;;5073262;28;20041;-70
2022/10/01 15:01:05;;;;;;;6.60;2.38;;;;;;;;;;5075337;28;20048;-70
2022/10/01 15:03:38;;;;;;;9.65;2.97;;;;;;;;;;5074786;28;20094;-70
2022/10/01 15:06:08;;;;;;;10.27;2.95;;;;;;;;;;5075738;28;20167;-69
2022/10/01 15:08:46;;;;;;;10.43;2.67;;;;;;;;;;5076197;28;20051;-70
2022/10/01 15:11:17;;;;;;;7.95;3.45;;;;;;;;;;5074165;28;20937;-69
2022/10/01 15:13:44;;;;;;;10.40;3.60;;;;;;;;;;5075895;28;20441;-69
2022/10/01 15:16:16;;;;;;;15.90;2.90;;;;;;;;;;5073734;28;20194;-70